Time;durP1;ratioP1;P1;durP2;ratioP2;P2;SDS_P1;SDS_P2;PMS_P1;PMS_P2;Temp;Humidity;BMP_temperature;BMP_pressure;BME280_temperature;BME280_humidity;BME280_pressure;Samples;Min_cycle;Max_cycle;Signal;HPM_P1;HPM_P2
2021/04/22 04:45:12;;;;;;;20.85;11.55;;;;;;;;;;6190577;22;883780;-77
2021/04/22 04:47:38;;;;;;;18.23;9.93;;;;;;;;;;6153410;23;20082;-77
2021/04/22 04:50:07;;;;;;;15.80;11.40;;;;;;;;;;6154136;23;20005;-77
2021/04/22 04:52:33;;;;;;;13.18;8.75;;;;;;;;;;6153961;23;19998;-78
2021/04/22 04:54:59;;;;;;;15.48;9.43;;;;;;;;;;6154179;23;20056;-77
2021/04/22 04:57:25;;;;;;;15.70;9.75;;;;;;;;;;6126116;23;20005;-76
2021/04/22 05:04:49;;;;;;;14.73;9.63;;;;;;;;;;5062022;28;20496;-85
2021/04/22 05:07:15;;;;;;;20.42;10.85;;;;;;;;;;5067608;28;20016;-85
2021/04/22 05:09:41;;;;;;;14.55;9.90;;;;;;;;;;5066730;28;20017;-83
2021/04/22 05:12:07;;;;;;;13.80;9.30;;;;;;;;;;5061634;28;20036;-85
2021/04/22 05:14:33;;;;;;;14.75;9.90;;;;;;;;;;5069100;28;20021;-83
2021/04/22 05:16:58;;;;;;;15.32;10.07;;;;;;;;;;5085835;28;20090;-82
2021/04/22 05:19:24;;;;;;;15.82;9.27;;;;;;;;;;5085981;28;20048;-82
2021/04/22 05:21:50;;;;;;;16.38;10.48;;;;;;;;;;5087545;28;20076;-83
2021/04/22 05:24:16;;;;;;;15.27;9.93;;;;;;;;;;5073282;28;20463;-83
2021/04/22 05:26:41;;;;;;;16.77;10.38;;;;;;;;;;5067740;28;20023;-83
2021/04/22 05:29:07;;;;;;;14.85;10.10;;;;;;;;;;5087434;28;20076;-83
2021/04/22 05:31:33;;;;;;;14.43;10.02;;;;;;;;;;5065306;28;20119;-83
2021/04/22 05:33:58;;;;;;;17.92;11.30;;;;;;;;;;5083471;28;20031;-82
2021/04/22 05:36:24;;;;;;;19.08;11.68;;;;;;;;;;5070120;28;20058;-82
2021/04/22 05:38:50;;;;;;;15.48;10.27;;;;;;;;;;5083437;28;20024;-83
2021/04/22 05:41:16;;;;;;;17.42;10.27;;;;;;;;;;5068651;28;20107;-83
2021/04/22 05:43:41;;;;;;;16.00;10.88;;;;;;;;;;5069045;28;20020;-84
2021/04/22 05:46:07;;;;;;;17.08;10.60;;;;;;;;;;5061333;28;20035;-82
2021/04/22 05:48:33;;;;;;;15.65;10.07;;;;;;;;;;5085894;28;20043;-82
2021/04/22 05:50:58;;;;;;;26.02;12.73;;;;;;;;;;5094650;28;20042;-82
2021/04/22 05:53:24;;;;;;;21.40;11.40;;;;;;;;;;5099185;28;20020;-82
2021/04/22 05:55:50;;;;;;;23.63;12.40;;;;;;;;;;5073988;28;20060;-82
2021/04/22 05:58:16;;;;;;;29.88;12.30;;;;;;;;;;5086883;28;20078;-82
2021/04/22 06:00:42;;;;;;;27.40;13.68;;;;;;;;;;5089336;28;20020;-83
2021/04/22 06:03:08;;;;;;;28.92;12.45;;;;;;;;;;5075220;28;20084;-82
2021/04/22 06:05:34;;;;;;;35.28;14.80;;;;;;;;;;5086694;28;20128;-82
2021/04/22 06:07:59;;;;;;;48.90;19.13;;;;;;;;;;5072824;28;20025;-83
2021/04/22 06:10:26;;;;;;;22.77;11.32;;;;;;;;;;5070030;28;20032;-82
2021/04/22 06:12:51;;;;;;;21.02;12.52;;;;;;;;;;5082932;28;20025;-82
2021/04/22 06:15:18;;;;;;;26.45;13.13;;;;;;;;;;5074877;28;20020;-82
2021/04/22 06:17:44;;;;;;;26.58;10.43;;;;;;;;;;5073690;28;20016;-82
2021/04/22 06:20:15;;;;;;;22.95;12.07;;;;;;;;;;5072032;28;20021;-83
2021/04/22 06:22:40;;;;;;;24.08;13.07;;;;;;;;;;5052978;28;20020;-82
2021/04/22 06:25:06;;;;;;;24.85;13.05;;;;;;;;;;5054229;28;20028;-82
2021/04/22 06:27:32;;;;;;;21.60;10.32;;;;;;;;;;5075534;28;20020;-82
2021/04/22 06:29:58;;;;;;;17.80;9.27;;;;;;;;;;5072239;28;20047;-82
2021/04/22 06:32:23;;;;;;;19.77;10.23;;;;;;;;;;5075992;28;20020;-82
2021/04/22 06:34:49;;;;;;;17.55;10.23;;;;;;;;;;5071047;28;20473;-83
2021/04/22 06:37:15;;;;;;;17.25;9.25;;;;;;;;;;5052807;28;20056;-83
2021/04/22 06:39:41;;;;;;;23.65;9.27;;;;;;;;;;5052909;28;20115;-83
2021/04/22 06:42:07;;;;;;;21.08;8.35;;;;;;;;;;5075654;28;20043;-83
2021/04/22 06:44:33;;;;;;;15.68;8.05;;;;;;;;;;5060026;28;20476;-83
2021/04/22 06:46:59;;;;;;;18.55;8.63;;;;;;;;;;5072092;28;20023;-82
2021/04/22 06:49:26;;;;;;;18.27;8.38;;;;;;;;;;5071359;28;20439;-82
2021/04/22 06:51:51;;;;;;;22.50;7.95;;;;;;;;;;5055326;28;20155;-82
2021/04/22 06:54:17;;;;;;;18.27;8.93;;;;;;;;;;5052606;28;20536;-82
2021/04/22 06:56:43;;;;;;;15.55;8.30;;;;;;;;;;5061677;28;20467;-82
2021/04/22 06:59:08;;;;;;;23.60;8.18;;;;;;;;;;5076611;28;20040;-82
2021/04/22 07:01:34;;;;;;;16.65;6.88;;;;;;;;;;5053870;28;20024;-82
2021/04/22 07:04:00;;;;;;;21.45;8.65;;;;;;;;;;5059406;28;20020;-82
2021/04/22 07:06:25;;;;;;;12.75;7.22;;;;;;;;;;5078108;28;20013;-82
2021/04/22 07:08:51;;;;;;;15.30;7.20;;;;;;;;;;5059928;28;20115;-82
2021/04/22 07:11:17;;;;;;;16.98;7.07;;;;;;;;;;5057010;28;20393;-82
2021/04/22 07:13:42;;;;;;;19.88;6.93;;;;;;;;;;5074386;28;20028;-82
2021/04/22 07:16:08;;;;;;;19.48;7.78;;;;;;;;;;5080634;28;20083;-83
2021/04/22 07:18:34;;;;;;;14.50;7.95;;;;;;;;;;5063928;28;20024;-83
2021/04/22 07:21:00;;;;;;;13.02;6.07;;;;;;;;;;5061023;28;20054;-83
2021/04/22 07:23:27;;;;;;;13.82;6.25;;;;;;;;;;5074525;28;20021;-82
2021/04/22 07:25:53;;;;;;;10.88;5.65;;;;;;;;;;5055139;28;20021;-82
2021/04/22 07:28:18;;;;;;;12.68;5.75;;;;;;;;;;5056814;28;20438;-82
2021/04/22 07:30:45;;;;;;;16.60;6.38;;;;;;;;;;5047600;28;20599;-82
2021/04/22 07:33:11;;;;;;;14.02;5.32;;;;;;;;;;5057243;28;20028;-83
2021/04/22 07:35:38;;;;;;;12.68;5.60;;;;;;;;;;5074201;28;20051;-82
2021/04/22 07:38:05;;;;;;;12.05;5.10;;;;;;;;;;5057181;28;20027;-83
2021/04/22 07:40:30;;;;;;;13.50;5.28;;;;;;;;;;5056989;28;20067;-82
2021/04/22 07:42:56;;;;;;;17.08;4.82;;;;;;;;;;5078508;28;20028;-83
2021/04/22 07:45:24;;;;;;;17.27;6.03;;;;;;;;;;5060136;28;20027;-82
2021/04/22 07:47:50;;;;;;;12.57;5.30;;;;;;;;;;5079878;28;20021;-83
2021/04/22 07:50:17;;;;;;;13.30;5.10;;;;;;;;;;5057311;28;20013;-83
2021/04/22 07:52:43;;;;;;;16.67;5.60;;;;;;;;;;5055498;28;20021;-83
2021/04/22 07:55:11;;;;;;;14.60;4.78;;;;;;;;;;5058687;28;20541;-82
2021/04/22 07:57:38;;;;;;;11.88;4.32;;;;;;;;;;5053392;28;20008;-83
2021/04/22 08:00:05;;;;;;;9.73;4.25;;;;;;;;;;5056307;28;20427;-82
2021/04/22 08:02:30;;;;;;;14.93;3.90;;;;;;;;;;5085374;28;20078;-82
2021/04/22 08:04:56;;;;;;;21.00;5.93;;;;;;;;;;5086224;28;20080;-83
2021/04/22 08:07:22;;;;;;;11.82;5.03;;;;;;;;;;5082359;28;20023;-83
2021/04/22 08:09:48;;;;;;;11.00;4.55;;;;;;;;;;5080497;28;20032;-83
2021/04/22 08:12:13;;;;;;;12.15;4.07;;;;;;;;;;5064944;28;20093;-83
2021/04/22 08:14:39;;;;;;;16.38;4.68;;;;;;;;;;5057464;28;20107;-83
2021/04/22 08:17:05;;;;;;;13.55;4.85;;;;;;;;;;5079095;28;20024;-83
2021/04/22 08:19:32;;;;;;;8.98;4.15;;;;;;;;;;5078617;28;20009;-82
2021/04/22 08:21:58;;;;;;;11.52;4.05;;;;;;;;;;5080497;28;20032;-82
2021/04/22 08:24:24;;;;;;;8.68;3.20;;;;;;;;;;5057881;28;20020;-83
2021/04/22 08:26:50;;;;;;;9.48;3.92;;;;;;;;;;5062623;28;20013;-83
2021/04/22 08:29:15;;;;;;;10.02;4.60;;;;;;;;;;5071417;28;20082;-83
2021/04/22 08:34:02;;;;;;;10.75;4.15;;;;;;;;;;5130419;27;20358;-83
2021/04/22 08:36:29;;;;;;;8.18;3.70;;;;;;;;;;5123156;28;20027;-83
2021/04/22 08:38:54;;;;;;;11.73;3.60;;;;;;;;;;5124144;28;20025;-82
2021/04/22 08:41:20;;;;;;;6.78;3.35;;;;;;;;;;5121343;28;20074;-83
2021/04/22 08:43:47;;;;;;;8.60;3.80;;;;;;;;;;5127717;28;20041;-82
2021/04/22 08:46:13;;;;;;;10.80;3.90;;;;;;;;;;5126152;28;20056;-81
2021/04/22 08:48:42;;;;;;;14.70;4.10;;;;;;;;;;5124515;28;20015;-81
2021/04/22 08:51:08;;;;;;;12.20;4.10;;;;;;;;;;5128490;28;20027;-83
2021/04/22 08:53:36;;;;;;;7.47;2.85;;;;;;;;;;5120119;28;20016;-83
2021/04/22 08:56:01;;;;;;;8.40;4.00;;;;;;;;;;5119514;28;20035;-80
2021/04/22 09:00:49;;;;;;;12.23;4.18;;;;;;;;;;5136390;27;20355;-84
2021/04/22 09:03:15;;;;;;;9.90;3.47;;;;;;;;;;5130017;27;20043;-84
2021/04/22 09:05:41;;;;;;;7.97;3.00;;;;;;;;;;5137791;27;20079;-84
2021/04/22 09:08:07;;;;;;;9.82;3.67;;;;;;;;;;5120912;28;20030;-85
2021/04/22 09:10:33;;;;;;;10.77;3.75;;;;;;;;;;5125698;27;20023;-85
2021/04/22 09:13:03;;;;;;;10.50;3.92;;;;;;;;;;5119802;28;20479;-85
2021/04/22 09:15:30;;;;;;;8.30;3.40;;;;;;;;;;5123267;28;20470;-85
2021/04/22 09:17:58;;;;;;;9.48;3.15;;;;;;;;;;5122896;27;20027;-84
2021/04/22 09:20:28;;;;;;;7.28;2.60;;;;;;;;;;5123109;28;20019;-84
2021/04/22 09:22:53;;;;;;;7.20;3.33;;;;;;;;;;5136598;28;20027;-84
2021/04/22 09:25:25;;;;;;;10.75;2.90;;;;;;;;;;5134024;27;20023;-84
2021/04/22 09:27:50;;;;;;;9.65;2.97;;;;;;;;;;5130591;28;20050;-85
2021/04/22 09:30:17;;;;;;;7.72;2.60;;;;;;;;;;5115504;27;20047;-83
2021/04/22 09:32:43;;;;;;;9.90;3.08;;;;;;;;;;5122645;28;20399;-85
2021/04/22 09:35:13;;;;;;;9.25;2.72;;;;;;;;;;5102952;27;20020;-85
2021/04/22 09:37:40;;;;;;;10.85;2.78;;;;;;;;;;5119661;28;20387;-84
2021/04/22 09:40:24;;;;;;;8.82;2.78;;;;;;;;;;5119688;28;20497;-84
2021/04/22 09:42:51;;;;;;;9.43;2.70;;;;;;;;;;5123778;28;20577;-85
2021/04/22 09:45:18;;;;;;;9.48;2.85;;;;;;;;;;5115944;28;20012;-81
2021/04/22 09:47:44;;;;;;;7.82;2.40;;;;;;;;;;5121760;28;20024;-81
2021/04/22 09:50:14;;;;;;;7.90;2.80;;;;;;;;;;5133055;28;20035;-81
2021/04/22 09:52:41;;;;;;;8.90;2.95;;;;;;;;;;5118852;28;20028;-80
2021/04/22 09:55:17;;;;;;;8.25;2.30;;;;;;;;;;5132144;28;20392;-80
2021/04/22 09:57:44;;;;;;;11.95;2.50;;;;;;;;;;5116798;28;20020;-80
2021/04/22 10:00:14;;;;;;;9.02;2.75;;;;;;;;;;5125682;28;20079;-80
2021/04/22 10:02:44;;;;;;;9.65;2.42;;;;;;;;;;5125404;27;20027;-81
2021/04/22 10:05:17;;;;;;;8.57;3.13;;;;;;;;;;5123459;28;20020;-81
2021/04/22 10:07:42;;;;;;;10.48;2.25;;;;;;;;;;5118033;28;20020;-81
2021/04/22 10:10:19;;;;;;;9.30;2.72;;;;;;;;;;5128180;28;20051;-83
2021/04/22 10:12:45;;;;;;;8.88;2.78;;;;;;;;;;5111550;28;20019;-81
2021/04/22 10:15:13;;;;;;;7.78;2.47;;;;;;;;;;5101701;28;20023;-82
2021/04/22 10:17:39;;;;;;;9.05;2.40;;;;;;;;;;5111330;28;20052;-81
2021/04/22 10:20:07;;;;;;;7.72;2.65;;;;;;;;;;5111393;28;20025;-81
2021/04/22 10:22:34;;;;;;;7.32;2.40;;;;;;;;;;5114124;28;20016;-81
2021/04/22 10:25:01;;;;;;;7.30;2.83;;;;;;;;;;5107625;28;20025;-82
2021/04/22 10:27:27;;;;;;;7.15;3.00;;;;;;;;;;5106623;28;20032;-82
2021/04/22 10:29:54;;;;;;;6.80;2.22;;;;;;;;;;5118011;27;20065;-81
2021/04/22 10:34:44;;;;;;;10.00;2.88;;;;;;;;;;5088933;28;20392;-82
2021/04/22 10:37:10;;;;;;;5.70;1.98;;;;;;;;;;5079862;28;20630;-82
2021/04/22 10:39:36;;;;;;;6.10;2.13;;;;;;;;;;5080306;28;20078;-82
2021/04/22 10:42:02;;;;;;;10.07;2.80;;;;;;;;;;5078332;28;20025;-81
2021/04/22 10:44:31;;;;;;;6.80;1.92;;;;;;;;;;5078505;28;20024;-81
2021/04/22 10:46:58;;;;;;;8.80;2.65;;;;;;;;;;5083502;28;20031;-82
2021/04/22 10:49:23;;;;;;;8.50;2.60;;;;;;;;;;5079594;28;20066;-81
2021/04/22 10:51:49;;;;;;;8.23;2.05;;;;;;;;;;5084593;28;20020;-81
2021/04/22 10:54:15;;;;;;;7.85;2.50;;;;;;;;;;5086479;28;20088;-81
2021/04/22 10:56:40;;;;;;;8.38;2.75;;;;;;;;;;5079062;28;20092;-82
2021/04/22 10:59:06;;;;;;;8.32;3.00;;;;;;;;;;5076296;28;20027;-81
2021/04/22 11:01:33;;;;;;;8.20;1.95;;;;;;;;;;5076469;22;20049;-78
2021/04/22 11:04:10;;;;;;;8.38;2.38;;;;;;;;;;5025043;28;20056;-77
2021/04/22 11:06:38;;;;;;;9.50;2.78;;;;;;;;;;5026906;28;20478;-77
2021/04/22 11:09:21;;;;;;;5.32;1.77;;;;;;;;;;5024727;28;20412;-77
2021/04/22 11:11:57;;;;;;;9.05;2.00;;;;;;;;;;5020712;28;20018;-78
2021/04/22 11:14:33;;;;;;;9.65;2.35;;;;;;;;;;5012197;28;20053;-77
2021/04/22 11:16:59;;;;;;;8.57;2.40;;;;;;;;;;5016450;28;20025;-77
2021/04/22 11:19:32;;;;;;;6.53;2.15;;;;;;;;;;5013109;28;20113;-78
2021/04/22 11:21:59;;;;;;;7.63;2.83;;;;;;;;;;5013551;28;20462;-78
2021/04/22 11:24:29;;;;;;;9.77;2.63;;;;;;;;;;5020878;28;20022;-78
2021/04/22 11:26:59;;;;;;;10.38;2.50;;;;;;;;;;5015429;28;20382;-77
2021/04/22 11:29:25;;;;;;;8.05;3.40;;;;;;;;;;5020993;28;20080;-77
2021/04/22 11:31:52;;;;;;;7.80;3.00;;;;;;;;;;5025474;28;20029;-76
2021/04/22 11:34:18;;;;;;;9.63;2.53;;;;;;;;;;5025413;28;20021;-75
2021/04/22 11:36:51;;;;;;;8.02;2.63;;;;;;;;;;5020349;28;20041;-77
2021/04/22 11:39:17;;;;;;;12.15;2.83;;;;;;;;;;5022599;28;20482;-77
2021/04/22 11:41:53;;;;;;;7.25;2.40;;;;;;;;;;5018399;28;20057;-76
2021/04/22 11:44:19;;;;;;;6.47;2.42;;;;;;;;;;5022113;28;20100;-77
2021/04/22 11:46:46;;;;;;;7.82;2.22;;;;;;;;;;5008260;28;20058;-77
2021/04/22 11:49:28;;;;;;;6.05;2.45;;;;;;;;;;5012542;28;20018;-77
2021/04/22 11:51:54;;;;;;;9.07;2.60;;;;;;;;;;5007144;28;20474;-79
2021/04/22 11:54:21;;;;;;;11.02;2.67;;;;;;;;;;5012831;28;20040;-78
2021/04/22 11:56:48;;;;;;;8.02;2.58;;;;;;;;;;5005115;28;20438;-77
2021/04/22 11:59:17;;;;;;;9.18;2.55;;;;;;;;;;5010691;28;20025;-77
2021/04/22 12:01:58;;;;;;;7.95;2.90;;;;;;;;;;5013412;28;20026;-77
2021/04/22 12:04:34;;;;;;;5.13;2.28;;;;;;;;;;5002318;28;20080;-77
2021/04/22 12:06:59;;;;;;;9.00;2.63;;;;;;;;;;5004539;28;20505;-79
2021/04/22 12:09:26;;;;;;;8.23;2.03;;;;;;;;;;5014276;28;20021;-78
2021/04/22 12:11:51;;;;;;;10.00;2.40;;;;;;;;;;5013977;28;20033;-78
2021/04/22 12:14:26;;;;;;;5.88;2.28;;;;;;;;;;5013657;28;20441;-78
2021/04/22 12:16:52;;;;;;;6.53;2.10;;;;;;;;;;5007331;28;20037;-77
2021/04/22 12:19:23;;;;;;;6.75;2.17;;;;;;;;;;5013559;28;20129;-77
2021/04/22 12:21:48;;;;;;;6.93;2.33;;;;;;;;;;5008215;28;20018;-79
2021/04/22 12:24:14;;;;;;;7.22;3.08;;;;;;;;;;5012291;28;20036;-78
2021/04/22 12:26:40;;;;;;;7.50;2.47;;;;;;;;;;5012953;28;20025;-77
2021/04/22 12:29:07;;;;;;;7.85;2.60;;;;;;;;;;5008341;28;20028;-79
2021/04/22 12:31:34;;;;;;;8.27;2.85;;;;;;;;;;5007240;28;20032;-77
2021/04/22 12:34:18;;;;;;;8.10;2.42;;;;;;;;;;5009290;28;20084;-79
2021/04/22 12:36:55;;;;;;;9.88;2.08;;;;;;;;;;5001341;28;20015;-78
2021/04/22 12:39:28;;;;;;;6.78;2.30;;;;;;;;;;5001498;28;20019;-79
2021/04/22 12:42:08;;;;;;;8.05;2.83;;;;;;;;;;5008635;28;20011;-79
2021/04/22 12:44:34;;;;;;;9.48;2.83;;;;;;;;;;5002796;28;20441;-78
2021/04/22 12:47:06;;;;;;;10.82;2.97;;;;;;;;;;5009636;28;20061;-79
2021/04/22 12:49:32;;;;;;;7.60;2.10;;;;;;;;;;5013966;28;20041;-79
2021/04/22 12:51:58;;;;;;;8.15;3.33;;;;;;;;;;5008893;28;20024;-78
2021/04/22 12:54:25;;;;;;;10.82;2.50;;;;;;;;;;5013513;28;20022;-79
2021/04/22 12:56:51;;;;;;;7.57;2.97;;;;;;;;;;5009323;28;20379;-78
2021/04/22 12:59:17;;;;;;;7.68;2.97;;;;;;;;;;5005919;28;20022;-77
2021/04/22 13:01:43;;;;;;;8.02;2.60;;;;;;;;;;5012258;28;20025;-78
2021/04/22 13:04:12;;;;;;;8.68;2.92;;;;;;;;;;5007653;28;20534;-78
2021/04/22 13:06:40;;;;;;;8.60;2.85;;;;;;;;;;5008044;28;20132;-77
2021/04/22 13:09:06;;;;;;;9.00;2.65;;;;;;;;;;5009757;28;20029;-78
2021/04/22 13:11:33;;;;;;;9.18;3.17;;;;;;;;;;5011988;28;20080;-77
2021/04/22 13:14:04;;;;;;;17.67;3.17;;;;;;;;;;5007106;28;20033;-77
2021/04/22 13:16:41;;;;;;;7.50;2.80;;;;;;;;;;5009834;28;20030;-78
2021/04/22 13:19:12;;;;;;;8.98;3.28;;;;;;;;;;5008696;28;20026;-78
2021/04/22 13:21:39;;;;;;;7.40;2.90;;;;;;;;;;5011785;28;20025;-77
2021/04/22 13:24:15;;;;;;;16.55;3.30;;;;;;;;;;5010692;28;20265;-77
2021/04/22 13:26:57;;;;;;;9.38;2.67;;;;;;;;;;5006569;28;20056;-77
2021/04/22 13:29:24;;;;;;;8.50;2.78;;;;;;;;;;5006087;28;20449;-77
2021/04/22 13:31:54;;;;;;;9.55;2.97;;;;;;;;;;5007717;28;20041;-77
2021/04/22 13:34:21;;;;;;;9.32;2.88;;;;;;;;;;5010012;28;20018;-77
2021/04/22 13:36:51;;;;;;;8.35;2.83;;;;;;;;;;5011686;28;20525;-77
2021/04/22 13:39:25;;;;;;;7.97;2.65;;;;;;;;;;5011578;28;20466;-77
2021/04/22 13:41:51;;;;;;;6.30;2.40;;;;;;;;;;5010335;28;20040;-78
2021/04/22 13:44:17;;;;;;;6.22;2.50;;;;;;;;;;5011432;28;20022;-78
2021/04/22 13:47:00;;;;;;;11.38;2.80;;;;;;;;;;5006061;28;20033;-77
2021/04/22 13:49:28;;;;;;;7.85;2.50;;;;;;;;;;5011539;28;20029;-77
2021/04/22 13:52:07;;;;;;;11.48;2.45;;;;;;;;;;5008561;28;20052;-77
2021/04/22 13:54:34;;;;;;;8.38;3.08;;;;;;;;;;5009476;28;20026;-77
2021/04/22 13:57:10;;;;;;;6.60;2.70;;;;;;;;;;5008305;28;20136;-77
2021/04/22 13:59:36;;;;;;;7.43;2.20;;;;;;;;;;5008763;28;20029;-77
2021/04/22 14:02:02;;;;;;;10.07;2.80;;;;;;;;;;5007487;28;20021;-78
2021/04/22 14:04:28;;;;;;;6.70;2.20;;;;;;;;;;5005996;28;20072;-78
2021/04/22 14:06:54;;;;;;;15.70;3.47;;;;;;;;;;5006861;28;20104;-78
2021/04/22 14:09:24;;;;;;;10.05;2.92;;;;;;;;;;5004419;28;20026;-77
2021/04/22 14:11:50;;;;;;;8.77;2.75;;;;;;;;;;5009962;28;20029;-77
2021/04/22 14:14:16;;;;;;;10.38;2.70;;;;;;;;;;5005983;28;20044;-77
2021/04/22 14:16:43;;;;;;;8.02;2.80;;;;;;;;;;5007915;28;20072;-77
2021/04/22 14:19:16;;;;;;;8.07;2.90;;;;;;;;;;5010178;28;20042;-78
2021/04/22 14:21:42;;;;;;;13.52;3.58;;;;;;;;;;5004113;28;20038;-77
2021/04/22 14:26:26;;;;;;;6.38;2.38;;;;;;;;;;5093082;27;20385;-79
2021/04/22 14:28:52;;;;;;;6.68;2.45;;;;;;;;;;5091749;28;20449;-78
2021/04/22 14:31:17;;;;;;;7.72;2.70;;;;;;;;;;5091762;28;20472;-79
2021/04/22 14:33:43;;;;;;;7.03;2.67;;;;;;;;;;5088048;28;20103;-78
2021/04/22 14:36:09;;;;;;;10.75;2.33;;;;;;;;;;5080740;28;20033;-79
2021/04/22 14:38:38;;;;;;;5.95;2.97;;;;;;;;;;5089955;28;20031;-78
2021/04/22 14:41:04;;;;;;;9.45;2.42;;;;;;;;;;5091771;28;20024;-78
2021/04/22 14:43:30;;;;;;;8.75;2.85;;;;;;;;;;5087105;28;20020;-78
2021/04/22 14:45:56;;;;;;;10.40;3.17;;;;;;;;;;5089666;28;20055;-79
2021/04/22 14:48:21;;;;;;;10.13;3.15;;;;;;;;;;5087089;28;20032;-77
2021/04/22 14:50:47;;;;;;;7.25;2.53;;;;;;;;;;5094724;28;20017;-79
2021/04/22 14:53:13;;;;;;;8.02;2.65;;;;;;;;;;5094061;28;20349;-78
2021/04/22 14:55:39;;;;;;;11.43;3.30;;;;;;;;;;5092966;28;20039;-78
2021/04/22 14:58:04;;;;;;;8.85;3.25;;;;;;;;;;5082041;28;20020;-79
2021/04/22 15:00:30;;;;;;;6.15;1.95;;;;;;;;;;5090044;28;20028;-78
2021/04/22 15:02:56;;;;;;;9.25;2.95;;;;;;;;;;5093292;28;20017;-78
2021/04/22 15:05:21;;;;;;;7.22;2.35;;;;;;;;;;5093477;28;20103;-79
2021/04/22 15:07:47;;;;;;;14.52;5.05;;;;;;;;;;5087119;28;20020;-78
2021/04/22 15:10:13;;;;;;;11.10;4.38;;;;;;;;;;5095425;28;20011;-78
2021/04/22 15:12:40;;;;;;;7.82;2.30;;;;;;;;;;5084839;28;20024;-78
2021/04/22 15:15:06;;;;;;;6.82;2.42;;;;;;;;;;5089050;28;20016;-77
2021/04/22 15:17:32;;;;;;;7.40;2.72;;;;;;;;;;5083750;28;20052;-77
2021/04/22 15:19:57;;;;;;;10.85;3.13;;;;;;;;;;5080960;28;20034;-78
2021/04/22 15:22:24;;;;;;;6.38;2.35;;;;;;;;;;5085128;28;20028;-78
2021/04/22 15:24:49;;;;;;;8.57;2.28;;;;;;;;;;5080082;28;20047;-78
2021/04/22 15:27:15;;;;;;;7.28;2.50;;;;;;;;;;5086474;28;20032;-78
2021/04/22 15:29:42;;;;;;;11.15;2.67;;;;;;;;;;5082552;28;20024;-78
2021/04/22 15:32:08;;;;;;;7.28;2.15;;;;;;;;;;5078962;28;20064;-78
2021/04/22 15:34:34;;;;;;;5.65;2.38;;;;;;;;;;5080160;28;20038;-78
2021/04/22 15:36:59;;;;;;;6.47;2.55;;;;;;;;;;5077168;28;20101;-78
2021/04/22 15:39:26;;;;;;;8.32;2.80;;;;;;;;;;5069701;28;20021;-78
2021/04/22 15:41:52;;;;;;;5.45;2.15;;;;;;;;;;5074607;28;20032;-78
2021/04/22 15:44:18;;;;;;;9.40;2.60;;;;;;;;;;5069920;28;20136;-78
2021/04/22 15:46:44;;;;;;;8.00;2.30;;;;;;;;;;5067207;28;20480;-78
2021/04/22 15:49:10;;;;;;;10.10;3.00;;;;;;;;;;5067022;28;20029;-78
2021/04/22 15:51:36;;;;;;;6.30;1.92;;;;;;;;;;5068116;28;20629;-78
2021/04/22 15:54:03;;;;;;;4.53;2.20;;;;;;;;;;5064015;28;20439;-78
2021/04/22 15:56:29;;;;;;;8.00;2.92;;;;;;;;;;5066630;28;20104;-78
2021/04/22 15:58:55;;;;;;;8.00;2.35;;;;;;;;;;5071407;28;20016;-78
2021/04/22 16:01:21;;;;;;;6.55;2.22;;;;;;;;;;5070193;28;20028;-78
2021/04/22 16:03:47;;;;;;;5.78;2.05;;;;;;;;;;5072901;28;20400;-77
2021/04/22 16:06:12;;;;;;;6.32;2.30;;;;;;;;;;5076202;28;20530;-78
2021/04/22 16:08:38;;;;;;;10.38;2.45;;;;;;;;;;5074167;28;20032;-79
2021/04/22 16:11:04;;;;;;;8.02;2.35;;;;;;;;;;5074316;28;20032;-77
2021/04/22 16:13:30;;;;;;;10.73;2.60;;;;;;;;;;5069132;28;20029;-78
2021/04/22 16:15:55;;;;;;;7.47;2.30;;;;;;;;;;5073903;28;20119;-78
2021/04/22 16:18:21;;;;;;;7.57;2.83;;;;;;;;;;5065702;28;20043;-79
2021/04/22 16:20:51;;;;;;;7.43;2.42;;;;;;;;;;5062592;28;20468;-79
2021/04/22 16:23:19;;;;;;;7.80;2.13;;;;;;;;;;5069538;28;20145;-78
2021/04/22 16:28:06;;;;;;;6.78;2.75;;;;;;;;;;5041578;27;699298;-78
2021/04/22 16:30:32;;;;;;;7.13;2.42;;;;;;;;;;5046849;28;20017;-78
2021/04/22 16:32:57;;;;;;;8.40;2.45;;;;;;;;;;5028659;28;20493;-78
2021/04/22 16:35:23;;;;;;;5.75;2.10;;;;;;;;;;5027833;28;20480;-78
2021/04/22 16:37:49;;;;;;;6.05;1.95;;;;;;;;;;5027601;28;20025;-78
2021/04/22 16:40:15;;;;;;;6.75;2.60;;;;;;;;;;5027446;28;20040;-78
2021/04/22 16:42:41;;;;;;;7.80;2.38;;;;;;;;;;5027414;28;20026;-78
2021/04/22 16:45:08;;;;;;;5.88;2.15;;;;;;;;;;5028581;28;20536;-78
2021/04/22 16:47:34;;;;;;;8.57;2.67;;;;;;;;;;5027697;28;20033;-78
2021/04/22 16:50:00;;;;;;;7.55;1.88;;;;;;;;;;5024523;28;20018;-78
2021/04/22 16:52:25;;;;;;;12.07;3.22;;;;;;;;;;5030313;28;20068;-77
2021/04/22 16:54:51;;;;;;;10.75;2.45;;;;;;;;;;5025140;28;20029;-78
2021/04/22 16:57:17;;;;;;;8.65;2.40;;;;;;;;;;5027444;28;20033;-78
2021/04/22 16:59:42;;;;;;;6.72;2.53;;;;;;;;;;5009652;28;20032;-78
2021/04/22 17:02:08;;;;;;;7.82;2.47;;;;;;;;;;5057360;22;20398;-77
2021/04/22 17:04:34;;;;;;;8.70;2.47;;;;;;;;;;5026625;28;20026;-82
2021/04/22 17:06:59;;;;;;;7.93;2.50;;;;;;;;;;5023045;28;20128;-80
2021/04/22 17:09:25;;;;;;;6.57;2.33;;;;;;;;;;5022075;28;20052;-80
2021/04/22 17:11:51;;;;;;;7.07;2.70;;;;;;;;;;5036027;28;20037;-81
2021/04/22 17:14:16;;;;;;;7.57;2.72;;;;;;;;;;5036631;28;20018;-82
2021/04/22 17:16:42;;;;;;;5.93;2.17;;;;;;;;;;5031956;28;20032;-82
2021/04/22 17:19:09;;;;;;;9.77;2.83;;;;;;;;;;5021803;28;20022;-82
2021/04/22 17:21:34;;;;;;;6.60;2.15;;;;;;;;;;5022368;28;20025;-82
2021/04/22 17:24:00;;;;;;;6.25;2.08;;;;;;;;;;5022151;28;20464;-80
2021/04/22 17:26:27;;;;;;;9.63;2.78;;;;;;;;;;5048250;28;20017;-80
2021/04/22 17:28:53;;;;;;;9.20;2.30;;;;;;;;;;5047937;28;20021;-83
2021/04/22 17:31:19;;;;;;;5.70;1.90;;;;;;;;;;5028467;28;20022;-82
2021/04/22 17:33:45;;;;;;;5.38;2.28;;;;;;;;;;5029924;28;20021;-82
2021/04/22 17:36:11;;;;;;;11.05;2.55;;;;;;;;;;5048153;28;20018;-82
2021/04/22 17:38:38;;;;;;;8.80;2.70;;;;;;;;;;5036305;28;20026;-83
2021/04/22 17:41:04;;;;;;;8.93;2.72;;;;;;;;;;5032061;28;20029;-80
2021/04/22 17:43:30;;;;;;;10.52;3.25;;;;;;;;;;5031838;28;20042;-81
2021/04/22 17:45:56;;;;;;;14.75;6.80;;;;;;;;;;5031682;28;20089;-83
2021/04/22 17:48:22;;;;;;;13.82;5.28;;;;;;;;;;5029663;28;20024;-82
2021/04/22 17:50:47;;;;;;;21.63;9.23;;;;;;;;;;5033114;28;20089;-81
2021/04/22 17:53:14;;;;;;;9.88;3.38;;;;;;;;;;5011700;28;20113;-80
2021/04/22 17:55:40;;;;;;;7.30;2.78;;;;;;;;;;5015069;28;20022;-81
2021/04/22 17:58:09;;;;;;;10.18;2.85;;;;;;;;;;5029065;28;20030;-81
2021/04/22 18:00:35;;;;;;;7.13;2.47;;;;;;;;;;5032322;28;20044;-80
2021/04/22 18:03:01;;;;;;;9.02;2.95;;;;;;;;;;5030367;28;20105;-83
2021/04/22 18:05:28;;;;;;;9.05;2.50;;;;;;;;;;5034234;28;20021;-81
2021/04/22 18:07:55;;;;;;;11.65;3.10;;;;;;;;;;5016586;28;20489;-82
2021/04/22 18:10:21;;;;;;;6.63;2.40;;;;;;;;;;5014197;28;20050;-81
2021/04/22 18:12:47;;;;;;;6.30;2.38;;;;;;;;;;5011181;28;20018;-82
2021/04/22 18:15:18;;;;;;;10.20;3.60;;;;;;;;;;5032592;28;20048;-81
2021/04/22 18:17:44;;;;;;;6.25;2.95;;;;;;;;;;5026896;28;20018;-82
2021/04/22 18:20:11;;;;;;;8.95;2.65;;;;;;;;;;5029611;28;20037;-82
2021/04/22 18:22:37;;;;;;;8.65;2.97;;;;;;;;;;5023345;28;20033;-81
2021/04/22 18:25:04;;;;;;;10.30;3.67;;;;;;;;;;5022966;28;20025;-81
2021/04/22 18:27:30;;;;;;;9.15;3.25;;;;;;;;;;5024333;28;20021;-82
2021/04/22 18:29:55;;;;;;;7.15;1.80;;;;;;;;;;5028149;28;20018;-81
2021/04/22 18:32:21;;;;;;;6.70;2.05;;;;;;;;;;5022171;28;20018;-82
2021/04/22 18:34:47;;;;;;;7.03;2.03;;;;;;;;;;5024679;28;20079;-83
2021/04/22 18:37:13;;;;;;;7.38;2.05;;;;;;;;;;5022141;28;20031;-83
2021/04/22 18:39:39;;;;;;;6.10;2.60;;;;;;;;;;5015646;28;20022;-83
2021/04/22 18:42:05;;;;;;;5.97;2.53;;;;;;;;;;5026900;28;20041;-79
2021/04/22 18:44:31;;;;;;;5.63;2.42;;;;;;;;;;5020818;28;20029;-81
2021/04/22 18:46:56;;;;;;;8.68;2.70;;;;;;;;;;5000834;28;20529;-80
2021/04/22 18:49:22;;;;;;;8.68;2.03;;;;;;;;;;5006373;28;20022;-80
2021/04/22 18:51:52;;;;;;;4.13;2.13;;;;;;;;;;5007600;28;20113;-82
2021/04/22 18:54:27;;;;;;;4.85;2.40;;;;;;;;;;5012997;28;20413;-80
2021/04/22 18:56:55;;;;;;;6.60;2.20;;;;;;;;;;5017809;28;20112;-83
2021/04/22 18:59:21;;;;;;;7.05;2.70;;;;;;;;;;5019672;28;20105;-80
2021/04/22 19:01:47;;;;;;;5.93;2.08;;;;;;;;;;5023813;28;20123;-81
2021/04/22 19:04:13;;;;;;;4.65;1.95;;;;;;;;;;5023569;28;20678;-82
2021/04/22 19:06:39;;;;;;;5.43;1.80;;;;;;;;;;5006830;28;20437;-82
2021/04/22 19:09:06;;;;;;;9.75;2.30;;;;;;;;;;5022873;28;20026;-82
2021/04/22 19:11:35;;;;;;;5.20;1.67;;;;;;;;;;5022319;28;20028;-82
2021/04/22 19:14:01;;;;;;;4.88;1.88;;;;;;;;;;5004398;28;20030;-83
2021/04/22 19:16:27;;;;;;;5.43;1.52;;;;;;;;;;5011927;28;20060;-81
2021/04/22 19:18:53;;;;;;;5.05;2.22;;;;;;;;;;5030451;28;20052;-82
2021/04/22 19:21:19;;;;;;;4.40;2.65;;;;;;;;;;5023433;28;20038;-81
2021/04/22 19:23:44;;;;;;;5.55;2.00;;;;;;;;;;5022201;28;20105;-83
2021/04/22 19:26:10;;;;;;;6.35;1.98;;;;;;;;;;5003373;28;20651;-82
2021/04/22 19:28:36;;;;;;;10.27;2.85;;;;;;;;;;5024097;28;20045;-83
2021/04/22 19:31:03;;;;;;;7.38;2.00;;;;;;;;;;5021429;28;20014;-82
2021/04/22 19:33:29;;;;;;;7.55;2.35;;;;;;;;;;5007089;28;20056;-82
2021/04/22 19:35:55;;;;;;;7.78;1.88;;;;;;;;;;5022725;28;20775;-81